createdAt,value
2022-09-29T06:18:40.664Z,17.20
2022-09-29T06:21:10.436Z,17.88
2022-09-29T06:23:37.936Z,15.63
2022-09-29T06:26:10.526Z,16.65
2022-09-29T06:28:37.531Z,15.95
2022-09-29T06:31:07.292Z,20.60
2022-09-29T06:33:36.635Z,16.02
2022-09-29T06:36:27.554Z,17.52
2022-09-29T06:38:54.279Z,15.90
2022-09-29T06:41:21.694Z,13.50
2022-09-29T06:43:48.453Z,12.13
2022-09-29T06:46:15.295Z,13.95
2022-09-29T06:48:42.283Z,14.25
2022-09-29T06:51:10.610Z,12.55
2022-09-29T06:53:39.042Z,10.95
2022-09-29T06:56:09.052Z,13.18
2022-09-29T06:58:35.945Z,13.20
2022-09-29T07:01:06.154Z,12.63
2022-09-29T07:03:33.941Z,9.82
2022-09-29T07:06:19.338Z,14.68
2022-09-29T07:08:47.254Z,9.77
2022-09-29T07:11:14.815Z,9.02
2022-09-29T07:13:42.565Z,7.32
2022-09-29T07:16:11.541Z,8.20
2022-09-29T07:18:41.391Z,7.93
2022-09-29T07:21:16.124Z,4.30
2022-09-29T07:23:43.562Z,4.35
2022-09-29T07:26:10.497Z,4.38
2022-09-29T07:28:38.367Z,4.45
2022-09-29T07:31:17.816Z,2.90
2022-09-29T07:33:45.937Z,3.45
2022-09-29T07:36:14.627Z,2.80
2022-09-29T07:38:41.957Z,2.47
2022-09-29T07:41:11.678Z,2.47
2022-09-29T07:43:39.268Z,2.83
2022-09-29T07:46:07.397Z,2.10
2022-09-29T07:48:36.491Z,3.55
2022-09-29T07:51:11.569Z,3.08
2022-09-29T07:53:39.333Z,2.85
2022-09-29T07:56:25.756Z,3.53
2022-09-29T07:58:52.487Z,3.10
2022-09-29T08:01:20.175Z,3.10
2022-09-29T08:03:55.343Z,2.60
2022-09-29T08:06:23.950Z,3.58
2022-09-29T08:09:02.868Z,3.63
2022-09-29T08:11:38.457Z,3.10
2022-09-29T08:14:06.104Z,3.13
2022-09-29T08:16:34.653Z,2.60
2022-09-29T08:19:04.682Z,3.17
2022-09-29T08:21:36.463Z,3.38
2022-09-29T08:24:05.094Z,3.90
2022-09-29T08:26:42.406Z,3.00
2022-09-29T08:29:16.456Z,3.70
2022-09-29T08:31:44.977Z,4.00
2022-09-29T08:34:16.279Z,4.28
2022-09-29T08:36:43.656Z,4.25
2022-09-29T08:39:11.490Z,3.45
2022-09-29T08:41:52.912Z,5.13
2022-09-29T08:44:39.926Z,3.63
2022-09-29T08:47:44.191Z,3.05
2022-09-29T08:50:17.122Z,3.83
2022-09-29T08:52:52.794Z,4.35
2022-09-29T08:55:34.679Z,3.70
2022-09-29T08:58:02.664Z,2.83
2022-09-29T09:01:09.528Z,2.47
2022-09-29T09:03:37.172Z,3.60
2022-09-29T09:06:28.256Z,2.90
2022-09-29T09:09:01.342Z,1.88
2022-09-29T09:11:34.067Z,3.03
2022-09-29T09:14:42.212Z,2.78
2022-09-29T09:17:32.841Z,7.18
2022-09-29T09:20:40.483Z,3.17
2022-09-29T09:23:42.327Z,1.90
2022-09-29T09:26:11.771Z,1.17
2022-09-29T09:28:49.617Z,2.97
2022-09-29T09:31:46.491Z,1.60
2022-09-29T09:34:34.049Z,2.50
2022-09-29T09:37:12.118Z,1.10
2022-09-29T09:39:52.157Z,1.38
2022-09-29T09:42:24.543Z,2.25
2022-09-29T09:45:14.869Z,0.98
2022-09-29T09:47:56.787Z,1.55
2022-09-29T09:50:28.051Z,2.05
2022-09-29T09:53:13.188Z,1.35
2022-09-29T09:55:43.302Z,1.52
2022-09-29T09:58:38.037Z,0.98
2022-09-29T10:01:12.043Z,0.82
2022-09-29T10:03:40.243Z,1.88
2022-09-29T10:06:08.630Z,0.60
2022-09-29T10:08:39.927Z,1.00
2022-09-29T10:11:27.273Z,1.73
2022-09-29T10:14:22.520Z,0.75
2022-09-29T10:17:01.513Z,1.02
2022-09-29T10:19:53.141Z,1.58
2022-09-29T10:24:56.988Z,1.52
2022-09-29T10:27:28.255Z,1.45
2022-09-29T10:29:56.980Z,0.85
2022-09-29T10:32:39.224Z,1.55
2022-09-29T10:35:19.065Z,1.75
2022-09-29T10:38:00.617Z,2.20
2022-09-29T10:40:27.925Z,2.85
2022-09-29T10:42:57.255Z,1.48
2022-09-29T10:45:27.066Z,1.75
2022-09-29T10:48:13.237Z,2.13
2022-09-29T10:51:04.186Z,1.42
2022-09-29T10:53:41.299Z,1.58
2022-09-29T10:56:18.343Z,3.40
2022-09-29T10:59:01.419Z,2.35
2022-09-29T11:01:35.450Z,3.70
2022-09-29T11:04:22.686Z,2.17
2022-09-29T11:06:50.174Z,2.03
2022-09-29T11:09:17.187Z,1.33
2022-09-29T11:11:46.719Z,3.13
2022-09-29T11:14:38.066Z,2.42
2022-09-29T11:17:44.339Z,1.77
2022-09-29T11:20:14.983Z,2.72
2022-09-29T11:23:03.815Z,5.40
2022-09-29T11:26:07.556Z,2.70
2022-09-29T11:28:53.510Z,3.92
2022-09-29T11:32:05.852Z,1.10
2022-09-29T11:34:52.805Z,1.27
2022-09-29T11:37:40.669Z,1.35
2022-09-29T11:40:48.751Z,2.67
2022-09-29T11:43:48.735Z,0.75
2022-09-29T11:46:45.444Z,0.93
2022-09-29T11:49:21.315Z,0.65
2022-09-29T11:52:05.667Z,1.23
2022-09-29T11:54:38.965Z,1.63
2022-09-29T11:57:36.028Z,1.95
2022-09-29T12:00:09.714Z,1.20
2022-09-29T12:02:55.622Z,0.68
2022-09-29T12:05:59.675Z,4.40
2022-09-29T12:08:48.229Z,2.05
2022-09-29T12:12:00.112Z,0.70
2022-09-29T12:14:37.722Z,1.00
2022-09-29T12:17:15.515Z,0.68
2022-09-29T12:19:44.955Z,1.02
2022-09-29T12:22:19.332Z,1.17
2022-09-29T12:24:55.557Z,0.75
2022-09-29T12:27:35.041Z,0.80
2022-09-29T12:30:05.556Z,2.38
2022-09-29T12:32:46.857Z,0.50
2022-09-29T12:35:39.576Z,0.77
2022-09-29T12:38:12.685Z,1.90
2022-09-29T12:40:46.335Z,0.50
2022-09-29T12:43:30.592Z,2.20
2022-09-29T12:46:13.133Z,0.75
2022-09-29T12:49:15.869Z,1.40
2022-09-29T12:51:45.894Z,1.48
2022-09-29T12:54:28.663Z,0.95
2022-09-29T12:57:11.306Z,0.82
2022-09-29T12:59:55.881Z,1.00
2022-09-29T13:02:22.829Z,0.45
2022-09-29T13:05:14.405Z,2.33
2022-09-29T13:07:50.379Z,1.02
2022-09-29T13:10:32.155Z,0.95
2022-09-29T13:13:18.093Z,0.82
2022-09-29T13:16:09.530Z,2.03
2022-09-29T13:19:06.605Z,0.68
2022-09-29T13:21:47.114Z,2.72
2022-09-29T13:24:36.432Z,1.60
2022-09-29T13:27:34.641Z,2.42
2022-09-29T13:30:23.178Z,1.60
2022-09-29T13:32:56.695Z,2.97
2022-09-29T13:35:27.622Z,1.23
2022-09-29T13:38:08.240Z,1.15
2022-09-29T13:40:35.587Z,2.50
2022-09-29T13:43:05.483Z,2.53
2022-09-29T13:45:35.576Z,0.77
2022-09-29T13:48:17.953Z,2.47
2022-09-29T13:50:49.889Z,0.52
2022-09-29T13:53:19.616Z,1.48
2022-09-29T13:56:01.546Z,0.88
2022-09-29T13:58:59.340Z,2.78
2022-09-29T14:01:36.697Z,1.15
2022-09-29T14:04:41.101Z,2.38
2022-09-29T14:07:08.308Z,0.90
2022-09-29T14:09:41.706Z,1.17
2022-09-29T14:12:18.477Z,3.30
2022-09-29T14:14:56.343Z,2.15
2022-09-29T14:17:37.362Z,1.88
2022-09-29T14:20:21.358Z,3.65
2022-09-29T14:22:57.580Z,1.40
2022-09-29T14:25:31.625Z,1.65
2022-09-29T14:28:06.663Z,2.22
2022-09-29T14:30:35.836Z,2.78
2022-09-29T14:33:10.235Z,1.13
2022-09-29T14:35:50.203Z,2.47
2022-09-29T14:38:33.613Z,1.67
2022-09-29T14:41:34.244Z,1.25
2022-09-29T14:44:09.973Z,1.23
2022-09-29T14:46:58.380Z,1.58
2022-09-29T14:50:15.057Z,1.42
2022-09-29T14:52:53.902Z,1.00
2022-09-29T14:55:41.664Z,3.65
2022-09-29T14:58:44.131Z,2.72
2022-09-29T15:01:28.382Z,5.70
2022-09-29T15:04:14.682Z,1.98
2022-09-29T15:06:50.714Z,1.00
2022-09-29T15:09:25.383Z,3.50
2022-09-29T15:11:55.063Z,2.13
2022-09-29T15:14:26.787Z,5.90
2022-09-29T15:17:02.251Z,2.75
2022-09-29T15:19:32.171Z,1.58
2022-09-29T15:22:16.859Z,1.45
2022-09-29T15:25:10.366Z,1.17
2022-09-29T15:27:40.121Z,1.77
2022-09-29T15:30:16.867Z,0.82
2022-09-29T15:32:46.198Z,2.28
2022-09-29T15:35:15.962Z,1.15
2022-09-29T15:37:45.651Z,0.90
2022-09-29T15:40:20.779Z,2.38
2022-09-29T15:42:48.316Z,3.67
2022-09-29T15:45:23.482Z,1.77
2022-09-29T15:48:05.931Z,1.55
2022-09-29T15:50:41.302Z,3.92
2022-09-29T15:53:10.509Z,1.80
2022-09-29T15:55:37.596Z,1.23
2022-09-29T15:58:27.294Z,3.15
2022-09-29T16:01:00.126Z,2.00
2022-09-29T16:03:52.819Z,3.63
2022-09-29T16:06:32.555Z,2.55
2022-09-29T16:09:15.570Z,3.60
2022-09-29T16:11:42.591Z,3.80
2022-09-29T16:14:12.256Z,2.50
2022-09-29T16:16:45.977Z,3.38
2022-09-29T16:19:21.850Z,3.03
2022-09-29T16:21:58.537Z,3.78
2022-09-29T16:24:30.219Z,2.72
2022-09-29T16:26:58.790Z,3.17
2022-09-29T16:29:33.997Z,2.75
2022-09-29T16:32:32.775Z,6.57
2022-09-29T16:35:39.178Z,5.32
2022-09-29T16:38:45.275Z,4.38
2022-09-29T16:41:34.224Z,5.53
2022-09-29T16:44:05.375Z,6.32
2022-09-29T16:46:33.770Z,7.35
2022-09-29T16:49:00.649Z,4.95
2022-09-29T16:51:45.552Z,3.88
2022-09-29T16:54:19.338Z,4.45
2022-09-29T16:56:48.574Z,4.47
2022-09-29T16:59:18.833Z,3.85
2022-09-29T17:01:48.917Z,4.50
2022-09-29T17:04:18.755Z,4.45
2022-09-29T17:06:48.310Z,4.53
2022-09-29T17:09:20.814Z,2.97
2022-09-29T17:11:49.402Z,4.57
2022-09-29T17:14:18.604Z,2.38
2022-09-29T17:16:45.981Z,4.07
2022-09-29T17:19:17.242Z,4.15
2022-09-29T17:21:47.271Z,3.95
2022-09-29T17:24:14.192Z,3.08
2022-09-29T17:27:04.294Z,3.38
2022-09-29T17:29:31.636Z,3.60
2022-09-29T17:32:05.136Z,4.45
2022-09-29T17:34:32.788Z,6.47
2022-09-29T17:37:01.929Z,7.60
2022-09-29T17:39:29.219Z,5.07
2022-09-29T17:41:57.417Z,4.03
2022-09-29T17:44:25.132Z,9.90
2022-09-29T17:46:57.402Z,5.63
2022-09-29T17:49:41.127Z,7.00
2022-09-29T17:52:28.317Z,6.93
2022-09-29T17:54:55.654Z,7.72
2022-09-29T17:57:27.837Z,7.70
2022-09-29T17:59:55.044Z,7.20
2022-09-29T18:02:23.113Z,7.05
2022-09-29T18:04:49.975Z,10.18
2022-09-29T18:07:16.848Z,5.80
2022-09-29T18:09:45.072Z,7.20
2022-09-29T18:12:11.884Z,4.70
2022-09-29T18:14:38.713Z,5.80
2022-09-29T18:17:05.989Z,6.45
2022-09-29T18:19:35.781Z,6.38
2022-09-29T18:22:06.077Z,8.05
2022-09-29T18:24:34.211Z,15.68
2022-09-29T18:27:01.166Z,13.77
2022-09-29T18:29:31.500Z,11.02
2022-09-29T18:31:59.689Z,8.85
2022-09-29T18:34:26.882Z,6.28
2022-09-29T18:36:53.667Z,8.75
2022-09-29T18:39:20.762Z,13.95
2022-09-29T18:41:47.604Z,12.95
2022-09-29T18:44:17.633Z,15.88
2022-09-29T18:46:44.757Z,12.40
2022-09-29T18:49:18.943Z,14.20
2022-09-29T18:51:46.055Z,14.10
2022-09-29T18:54:13.400Z,12.75
2022-09-29T18:56:40.426Z,13.52
2022-09-29T18:59:12.305Z,11.52
2022-09-29T19:01:40.277Z,12.82
2022-09-29T19:04:07.144Z,11.63
2022-09-29T19:06:34.128Z,13.50
2022-09-29T19:09:01.243Z,11.63
2022-09-29T19:11:28.144Z,13.77
2022-09-29T19:13:56.259Z,12.10
2022-09-29T19:16:24.337Z,11.85
2022-09-29T19:18:51.185Z,11.95
2022-09-29T19:21:18.251Z,10.38
2022-09-29T19:23:46.782Z,12.70
2022-09-29T19:26:22.553Z,13.30
2022-09-29T19:28:49.657Z,12.18
2022-09-29T19:31:19.720Z,13.98
2022-09-29T19:33:47.481Z,14.23
2022-09-29T19:36:17.797Z,15.50
2022-09-29T19:38:47.869Z,12.70
2022-09-29T19:41:20.167Z,14.25
2022-09-29T19:43:48.439Z,13.40
2022-09-29T19:46:16.191Z,13.68
2022-09-29T19:48:43.550Z,11.38
2022-09-29T19:51:34.102Z,11.20
2022-09-29T19:54:15.137Z,17.05
2022-09-29T19:56:59.071Z,12.15
2022-09-29T19:59:32.220Z,13.93
2022-09-29T20:02:01.751Z,13.52
2022-09-29T20:04:33.720Z,16.90
2022-09-29T20:07:02.194Z,19.33
2022-09-29T20:09:29.818Z,22.98
2022-09-29T20:11:56.959Z,19.88
2022-09-29T20:14:25.407Z,21.23
2022-09-29T20:16:55.778Z,21.85
2022-09-29T20:19:27.537Z,20.88
2022-09-29T20:21:58.248Z,20.08
2022-09-29T20:24:25.431Z,18.70
2022-09-29T20:26:57.651Z,22.15
2022-09-29T20:29:25.184Z,15.95
2022-09-29T20:31:53.756Z,15.70
2022-09-29T20:34:22.263Z,17.80
2022-09-29T20:36:55.015Z,20.08
2022-09-29T20:39:22.220Z,16.55
2022-09-29T20:41:50.143Z,19.30
2022-09-29T20:44:19.963Z,13.63
2022-09-29T20:46:47.060Z,16.65
2022-09-29T20:49:14.166Z,14.70
2022-09-29T20:51:41.075Z,17.50
2022-09-29T20:54:10.651Z,16.38
2022-09-29T20:56:44.080Z,18.27
2022-09-29T20:59:13.276Z,17.63
2022-09-29T21:01:40.907Z,16.65
2022-09-29T21:04:18.197Z,19.05
2022-09-29T21:06:47.819Z,15.40
2022-09-29T21:09:17.035Z,13.82
2022-09-29T21:11:45.255Z,18.05
2022-09-29T21:14:16.357Z,16.17
2022-09-29T21:16:45.052Z,15.13
2022-09-29T21:19:13.197Z,14.15
2022-09-29T21:21:41.046Z,17.20
2022-09-29T21:24:08.870Z,17.05
2022-09-29T21:26:36.219Z,15.88
2022-09-29T21:29:03.755Z,16.63
2022-09-29T21:31:33.818Z,14.52
2022-09-29T21:34:05.759Z,17.35
2022-09-29T21:36:35.471Z,12.25
2022-09-29T21:39:08.555Z,19.42
2022-09-29T21:41:55.902Z,15.80
2022-09-29T21:44:24.297Z,13.43
2022-09-29T21:46:51.692Z,16.02
2022-09-29T21:49:19.586Z,13.20
2022-09-29T21:51:50.484Z,15.10
2022-09-29T21:54:23.014Z,13.65
2022-09-29T21:56:51.083Z,17.42
2022-09-29T21:59:20.444Z,12.90
2022-09-29T22:01:48.154Z,13.18
2022-09-29T22:04:15.888Z,13.52
2022-09-29T22:06:45.092Z,13.15
2022-09-29T22:09:18.322Z,19.65
2022-09-29T22:11:46.197Z,12.57
2022-09-29T22:14:14.120Z,12.45
2022-09-29T22:16:40.920Z,15.50
2022-09-29T22:19:24.841Z,12.23
2022-09-29T22:21:54.987Z,13.10
2022-09-29T22:24:24.185Z,12.32
2022-09-29T22:26:51.171Z,10.77
2022-09-29T22:29:17.940Z,14.32
2022-09-29T22:31:49.903Z,12.70
2022-09-29T22:34:16.999Z,11.20
2022-09-29T22:36:46.601Z,11.73
2022-09-29T22:39:13.625Z,10.88
2022-09-29T22:41:41.054Z,11.10
2022-09-29T22:44:08.677Z,11.73
2022-09-29T22:46:35.857Z,10.20
2022-09-29T22:49:02.823Z,11.63
2022-09-29T22:51:29.752Z,11.23
2022-09-29T22:53:56.744Z,12.60
2022-09-29T22:56:30.324Z,11.60
2022-09-29T22:59:02.760Z,12.38
2022-09-29T23:01:29.712Z,9.80
2022-09-29T23:03:56.603Z,11.18
2022-09-29T23:06:23.767Z,11.13
2022-09-29T23:08:50.595Z,11.95
2022-09-29T23:11:19.925Z,12.30
2022-09-29T23:13:47.643Z,13.40
2022-09-29T23:16:16.517Z,12.77
2022-09-29T23:18:46.005Z,11.90
2022-09-29T23:21:15.260Z,14.60
2022-09-29T23:23:42.371Z,13.68
2022-09-29T23:26:09.217Z,13.02
2022-09-29T23:28:36.167Z,11.40
2022-09-29T23:31:07.305Z,11.60
2022-09-29T23:33:34.431Z,14.23
2022-09-29T23:36:13.811Z,13.95
2022-09-29T23:39:02.097Z,12.45
2022-09-29T23:41:30.552Z,12.05
2022-09-29T23:43:59.938Z,11.70
2022-09-29T23:46:32.006Z,11.70
2022-09-29T23:49:00.196Z,11.77
2022-09-29T23:51:28.253Z,15.48
2022-09-29T23:53:54.991Z,9.65
2022-09-29T23:56:21.920Z,10.80
2022-09-29T23:58:48.662Z,10.98
